Time;durP1;ratioP1;P1;durP2;ratioP2;P2;SDS_P1;SDS_P2;PMS_P1;PMS_P2;Temp;Humidity;BMP_temperature;BMP_pressure;BME280_temperature;BME280_humidity;BME280_pressure;Samples;Min_cycle;Max_cycle;Signal;HPM_P1;HPM_P2
2021/06/28 00:02:19;;;;;;;6.82;5.28;;;;;;;;;;5117072;28;20023;-88
2021/06/28 00:04:45;;;;;;;8.50;5.80;;;;;;;;;;5117068;28;20042;-87
2021/06/28 00:07:11;;;;;;;7.20;5.18;;;;;;;;;;5115642;28;20027;-87
2021/06/28 00:09:37;;;;;;;6.93;5.68;;;;;;;;;;5115744;28;20019;-88
2021/06/28 00:12:03;;;;;;;6.28;5.50;;;;;;;;;;5117089;28;20378;-88
2021/06/28 00:14:30;;;;;;;5.65;5.13;;;;;;;;;;5116802;28;20031;-87
2021/06/28 00:16:56;;;;;;;7.38;5.75;;;;;;;;;;5115549;28;20479;-86
2021/06/28 00:19:22;;;;;;;6.20;5.60;;;;;;;;;;5116747;27;20032;-87
2021/06/28 00:21:48;;;;;;;8.15;5.50;;;;;;;;;;5116681;28;20114;-89
2021/06/28 00:24:14;;;;;;;6.25;5.50;;;;;;;;;;5116982;28;20065;-89
2021/06/28 00:26:40;;;;;;;7.82;5.43;;;;;;;;;;5115268;27;20369;-87
2021/06/28 00:29:06;;;;;;;6.03;5.30;;;;;;;;;;5116875;28;20031;-89
2021/06/28 00:31:33;;;;;;;7.53;5.15;;;;;;;;;;5115176;28;20030;-88
2021/06/28 00:34:01;;;;;;;7.20;5.43;;;;;;;;;;5116307;28;20028;-84
2021/06/28 00:36:27;;;;;;;6.22;5.63;;;;;;;;;;5116446;28;20024;-86
2021/06/28 00:38:53;;;;;;;9.38;5.75;;;;;;;;;;5116195;28;20054;-84
2021/06/28 00:41:19;;;;;;;8.45;5.63;;;;;;;;;;5116545;28;20031;-84
2021/06/28 00:43:45;;;;;;;6.60;5.20;;;;;;;;;;5116322;28;20371;-87
2021/06/28 00:46:11;;;;;;;5.75;4.97;;;;;;;;;;5116175;28;20462;-87
2021/06/28 00:48:37;;;;;;;7.00;4.95;;;;;;;;;;5114883;28;20019;-86
2021/06/28 00:51:04;;;;;;;6.93;5.35;;;;;;;;;;5115019;28;20030;-86
2021/06/28 00:53:31;;;;;;;8.68;5.70;;;;;;;;;;5116322;28;20031;-85
2021/06/28 00:56:09;;;;;;;6.63;5.22;;;;;;;;;;5116002;28;20102;-89
2021/06/28 00:58:36;;;;;;;5.60;5.05;;;;;;;;;;5115750;28;20030;-85
2021/06/28 01:01:02;;;;;;;8.80;5.88;;;;;;;;;;5115800;28;20473;-83
2021/06/28 01:03:29;;;;;;;6.30;5.35;;;;;;;;;;5114872;28;20023;-84
2021/06/28 01:05:55;;;;;;;6.20;5.30;;;;;;;;;;5114645;28;20035;-86
2021/06/28 01:08:21;;;;;;;7.05;5.93;;;;;;;;;;5115859;28;20024;-87
2021/06/28 01:10:47;;;;;;;7.45;5.80;;;;;;;;;;5115759;28;20386;-87
2021/06/28 01:13:13;;;;;;;10.45;9.30;;;;;;;;;;5114392;28;20032;-84
2021/06/28 01:15:39;;;;;;;7.75;5.95;;;;;;;;;;5114368;28;20031;-86
2021/06/28 01:18:06;;;;;;;6.10;5.20;;;;;;;;;;5116012;28;20370;-91
2021/06/28 01:20:33;;;;;;;8.00;5.35;;;;;;;;;;5114151;28;20108;-85
2021/06/28 01:23:26;;;;;;;8.52;5.93;;;;;;;;;;5114150;28;20023;-85
2021/06/28 01:25:54;;;;;;;6.05;5.32;;;;;;;;;;5111910;28;20390;-86
2021/06/28 01:28:20;;;;;;;6.70;5.50;;;;;;;;;;5114016;28;20482;-85
2021/06/28 01:30:47;;;;;;;6.97;6.28;;;;;;;;;;5115330;28;20032;-90
2021/06/28 01:33:13;;;;;;;6.18;5.63;;;;;;;;;;5114102;28;20035;-88
2021/06/28 01:35:40;;;;;;;6.18;5.38;;;;;;;;;;5114003;28;20386;-87
2021/06/28 01:38:07;;;;;;;6.68;6.07;;;;;;;;;;5113340;28;20055;-88
2021/06/28 01:40:33;;;;;;;7.90;6.05;;;;;;;;;;5114992;28;20032;-86
2021/06/28 01:43:00;;;;;;;6.18;5.57;;;;;;;;;;5113839;28;20050;-85
2021/06/28 01:45:26;;;;;;;6.57;5.90;;;;;;;;;;5115069;28;20030;-85
2021/06/28 01:47:59;;;;;;;6.72;6.00;;;;;;;;;;5114947;28;20107;-86
2021/06/28 01:50:27;;;;;;;6.70;5.82;;;;;;;;;;5115036;28;20023;-86
2021/06/28 01:52:53;;;;;;;7.25;6.50;;;;;;;;;;5114775;28;20076;-87
2021/06/28 01:55:20;;;;;;;6.75;6.05;;;;;;;;;;5114778;27;20066;-88
2021/06/28 01:57:49;;;;;;;6.30;5.80;;;;;;;;;;5114864;28;20111;-87
2021/06/28 02:00:17;;;;;;;6.47;5.88;;;;;;;;;;5114791;28;20028;-85
2021/06/28 02:02:56;;;;;;;7.22;5.70;;;;;;;;;;5113440;28;20472;-87
2021/06/28 02:05:22;;;;;;;7.28;5.82;;;;;;;;;;5114444;28;20119;-85
2021/06/28 02:07:49;;;;;;;8.43;5.72;;;;;;;;;;5114822;28;20430;-89
2021/06/28 02:10:15;;;;;;;6.32;5.72;;;;;;;;;;5114691;28;20106;-85
2021/06/28 02:12:41;;;;;;;6.97;6.30;;;;;;;;;;5114519;28;20027;-84
2021/06/28 02:15:07;;;;;;;6.38;5.47;;;;;;;;;;5114440;28;20027;-87
2021/06/28 02:17:33;;;;;;;6.00;5.38;;;;;;;;;;5113045;28;20020;-86
2021/06/28 02:20:00;;;;;;;7.47;6.55;;;;;;;;;;5114334;28;20042;-88
2021/06/28 02:22:26;;;;;;;6.47;5.88;;;;;;;;;;5114381;28;20028;-87
2021/06/28 02:24:53;;;;;;;6.72;5.55;;;;;;;;;;5114408;28;20480;-88
2021/06/28 02:27:19;;;;;;;7.07;5.80;;;;;;;;;;5112867;28;20043;-87
2021/06/28 02:29:45;;;;;;;7.57;6.05;;;;;;;;;;5114258;28;20084;-87
2021/06/28 02:32:11;;;;;;;7.85;5.75;;;;;;;;;;5114220;28;20458;-86
2021/06/28 02:34:37;;;;;;;6.50;5.72;;;;;;;;;;5114020;28;20047;-87
2021/06/28 02:37:03;;;;;;;7.05;5.90;;;;;;;;;;5114226;28;20119;-85
2021/06/28 02:39:30;;;;;;;7.57;5.95;;;;;;;;;;5112395;28;20446;-84
2021/06/28 02:41:56;;;;;;;7.60;6.28;;;;;;;;;;5112656;28;20386;-89
2021/06/28 02:44:22;;;;;;;7.22;6.22;;;;;;;;;;5114209;28;20352;-86
2021/06/28 02:46:48;;;;;;;9.77;5.88;;;;;;;;;;5114020;28;20039;-87
2021/06/28 02:49:14;;;;;;;8.93;6.63;;;;;;;;;;5113321;28;20053;-84
2021/06/28 02:51:40;;;;;;;8.77;6.45;;;;;;;;;;5113946;28;20027;-84
2021/06/28 02:54:06;;;;;;;8.30;6.63;;;;;;;;;;5114075;28;20469;-86
2021/06/28 02:56:32;;;;;;;8.15;6.15;;;;;;;;;;5113769;28;20106;-87
2021/06/28 02:58:59;;;;;;;8.98;5.97;;;;;;;;;;5113923;28;20068;-85
2021/06/28 03:01:26;;;;;;;7.95;6.75;;;;;;;;;;5113963;28;20031;-83
2021/06/28 03:03:53;;;;;;;7.18;6.55;;;;;;;;;;5113827;28;20030;-87
2021/06/28 03:06:20;;;;;;;10.88;8.40;;;;;;;;;;5113900;28;20030;-86
2021/06/28 03:08:46;;;;;;;12.88;9.20;;;;;;;;;;5114033;28;20019;-86
2021/06/28 03:11:17;;;;;;;16.42;10.48;;;;;;;;;;5113848;28;20038;-88
2021/06/28 03:13:43;;;;;;;17.75;13.05;;;;;;;;;;5113722;28;20521;-85
2021/06/28 03:16:09;;;;;;;18.35;12.75;;;;;;;;;;5113690;28;20026;-83
2021/06/28 03:18:36;;;;;;;17.85;10.13;;;;;;;;;;5112381;28;20359;-84
2021/06/28 03:21:03;;;;;;;11.48;7.80;;;;;;;;;;5113483;28;20035;-84
2021/06/28 03:23:29;;;;;;;13.65;7.75;;;;;;;;;;5113724;28;20027;-86
2021/06/28 03:25:56;;;;;;;7.82;6.22;;;;;;;;;;5113802;28;20035;-85
2021/06/28 03:28:22;;;;;;;7.05;5.95;;;;;;;;;;5113484;28;20114;-83
2021/06/28 03:30:48;;;;;;;7.90;7.10;;;;;;;;;;5113577;28;20066;-84
2021/06/28 03:33:14;;;;;;;9.23;7.18;;;;;;;;;;5113480;28;20084;-86
2021/06/28 03:35:40;;;;;;;7.00;6.32;;;;;;;;;;5113503;28;20076;-85
2021/06/28 03:38:07;;;;;;;8.98;6.63;;;;;;;;;;5112084;28;20107;-87
2021/06/28 03:40:33;;;;;;;6.80;6.13;;;;;;;;;;5112119;28;20031;-88
2021/06/28 03:43:03;;;;;;;9.70;5.78;;;;;;;;;;5113582;28;20034;-85
2021/06/28 03:45:30;;;;;;;11.05;6.97;;;;;;;;;;5113386;28;20026;-85
2021/06/28 03:47:56;;;;;;;7.13;6.10;;;;;;;;;;5113459;28;20028;-85
2021/06/28 03:50:22;;;;;;;7.25;5.78;;;;;;;;;;5113385;28;20012;-84
2021/06/28 03:52:48;;;;;;;7.40;5.65;;;;;;;;;;5112228;28;20023;-86
2021/06/28 03:55:14;;;;;;;8.23;5.93;;;;;;;;;;5113431;28;20024;-83
2021/06/28 03:57:41;;;;;;;6.47;5.70;;;;;;;;;;5113294;28;20024;-84
2021/06/28 04:00:09;;;;;;;7.53;5.88;;;;;;;;;;5114745;28;20083;-85
2021/06/28 04:02:39;;;;;;;6.70;6.07;;;;;;;;;;5117123;28;20024;-82
2021/06/28 04:05:05;;;;;;;8.57;6.80;;;;;;;;;;5115936;28;20031;-86
2021/06/28 04:07:32;;;;;;;13.75;7.10;;;;;;;;;;5115905;28;20061;-86
2021/06/28 04:09:59;;;;;;;7.63;6.30;;;;;;;;;;5117082;28;20076;-86
2021/06/28 04:12:25;;;;;;;7.60;5.50;;;;;;;;;;5116817;28;20111;-81
2021/06/28 04:14:51;;;;;;;6.47;5.80;;;;;;;;;;5116927;28;20463;-84
2021/06/28 04:17:17;;;;;;;7.57;6.53;;;;;;;;;;5115419;28;20035;-83
2021/06/28 04:19:43;;;;;;;7.65;6.75;;;;;;;;;;5116866;28;20031;-86
2021/06/28 04:22:10;;;;;;;7.82;7.03;;;;;;;;;;5115434;28;20036;-84
2021/06/28 04:24:36;;;;;;;8.63;6.95;;;;;;;;;;5115511;28;20047;-85
2021/06/28 04:27:02;;;;;;;11.60;8.50;;;;;;;;;;5116601;28;20471;-86
2021/06/28 04:29:28;;;;;;;9.88;7.35;;;;;;;;;;5116535;28;20036;-82
2021/06/28 04:31:54;;;;;;;10.23;7.25;;;;;;;;;;5116828;28;20359;-83
2021/06/28 04:34:20;;;;;;;12.25;8.55;;;;;;;;;;5116370;28;20106;-86
2021/06/28 04:36:46;;;;;;;10.15;7.57;;;;;;;;;;5116410;28;20052;-81
2021/06/28 04:39:13;;;;;;;10.30;7.80;;;;;;;;;;5116168;28;20512;-83
2021/06/28 04:41:39;;;;;;;9.25;6.82;;;;;;;;;;5116177;28;20039;-81
2021/06/28 04:44:05;;;;;;;8.75;7.13;;;;;;;;;;5116624;28;20107;-83
2021/06/28 04:46:31;;;;;;;8.90;7.57;;;;;;;;;;5116309;28;20137;-81
2021/06/28 04:48:57;;;;;;;8.40;6.72;;;;;;;;;;5116285;28;20027;-81
2021/06/28 04:51:25;;;;;;;8.88;7.35;;;;;;;;;;5115901;28;20023;-81
2021/06/28 04:53:51;;;;;;;10.00;7.20;;;;;;;;;;5116094;28;20031;-83
2021/06/28 04:56:17;;;;;;;9.57;8.07;;;;;;;;;;5115334;28;20098;-80
2021/06/28 04:58:43;;;;;;;14.35;9.80;;;;;;;;;;5103949;28;20016;-79
2021/06/28 05:01:09;;;;;;;15.15;10.52;;;;;;;;;;5104953;28;20474;-79
2021/06/28 05:03:35;;;;;;;18.52;12.48;;;;;;;;;;5105644;28;20028;-80
2021/06/28 05:06:01;;;;;;;17.23;11.07;;;;;;;;;;5095906;28;20374;-79
2021/06/28 05:08:27;;;;;;;16.77;10.35;;;;;;;;;;5095387;28;20429;-78
2021/06/28 05:10:54;;;;;;;14.80;10.60;;;;;;;;;;5095563;28;20114;-83
2021/06/28 05:13:20;;;;;;;20.35;12.65;;;;;;;;;;5094450;28;20020;-79
2021/06/28 05:15:46;;;;;;;17.15;12.55;;;;;;;;;;5095810;28;20463;-82
2021/06/28 05:18:12;;;;;;;17.15;11.93;;;;;;;;;;5096158;28;20050;-82
2021/06/28 05:20:38;;;;;;;17.10;12.90;;;;;;;;;;5095902;28;20130;-83
2021/06/28 05:23:04;;;;;;;19.17;12.95;;;;;;;;;;5094480;28;20099;-80
2021/06/28 05:25:30;;;;;;;18.95;12.88;;;;;;;;;;5094822;28;20024;-81
2021/06/28 05:27:58;;;;;;;21.73;12.85;;;;;;;;;;5094193;28;20025;-79
2021/06/28 05:30:25;;;;;;;15.98;9.57;;;;;;;;;;5094478;28;20142;-77
2021/06/28 05:32:51;;;;;;;13.13;8.63;;;;;;;;;;5094153;28;20487;-81
2021/06/28 05:35:17;;;;;;;22.10;13.45;;;;;;;;;;5108970;28;20023;-79
2021/06/28 05:37:43;;;;;;;20.67;12.57;;;;;;;;;;5109943;28;20077;-82
2021/06/28 05:40:10;;;;;;;16.85;11.85;;;;;;;;;;5107498;28;20057;-80
2021/06/28 05:42:38;;;;;;;23.17;16.00;;;;;;;;;;5109093;28;20023;-83
2021/06/28 05:45:06;;;;;;;21.58;15.60;;;;;;;;;;5113736;28;20055;-84
2021/06/28 05:47:33;;;;;;;47.83;15.73;;;;;;;;;;5105802;28;20068;-81
2021/06/28 05:50:03;;;;;;;23.48;16.45;;;;;;;;;;5092296;28;20167;-85
2021/06/28 05:52:29;;;;;;;26.45;14.75;;;;;;;;;;5111665;28;20016;-80
2021/06/28 05:54:55;;;;;;;21.70;13.52;;;;;;;;;;5111648;28;20486;-79
2021/06/28 05:57:24;;;;;;;17.63;12.98;;;;;;;;;;5111929;28;20027;-81
2021/06/28 05:59:51;;;;;;;16.30;11.82;;;;;;;;;;5092109;28;20032;-80
2021/06/28 06:02:18;;;;;;;18.73;12.90;;;;;;;;;;5091935;28;20752;-81
2021/06/28 06:04:54;;;;;;;17.67;11.70;;;;;;;;;;5091662;28;20024;-85
2021/06/28 06:07:22;;;;;;;15.93;11.35;;;;;;;;;;5091588;28;20032;-88
2021/06/28 06:09:48;;;;;;;16.73;10.48;;;;;;;;;;5091892;28;20382;-85
2021/06/28 06:12:14;;;;;;;13.70;11.98;;;;;;;;;;5091068;28;20464;-83
2021/06/28 06:14:41;;;;;;;19.13;14.30;;;;;;;;;;5110099;28;20023;-85
2021/06/28 06:17:07;;;;;;;54.42;14.70;;;;;;;;;;5111347;28;20024;-84
2021/06/28 06:19:41;;;;;;;15.85;10.70;;;;;;;;;;5111837;27;20030;-87
2021/06/28 06:22:08;;;;;;;12.38;9.35;;;;;;;;;;5110219;28;20428;-86
2021/06/28 06:24:37;;;;;;;16.77;11.55;;;;;;;;;;5111261;28;20474;-85
2021/06/28 06:30:04;;;;;;;16.15;10.82;;;;;;;;;;5091447;28;20040;-87
2021/06/28 06:35:22;;;;;;;13.45;9.65;;;;;;;;;;5086613;28;20039;-87
2021/06/28 06:40:54;;;;;;;11.98;10.05;;;;;;;;;;5111570;28;20047;-88
2021/06/28 06:43:20;;;;;;;15.63;8.93;;;;;;;;;;5111303;28;20028;-87
2021/06/28 06:45:47;;;;;;;13.52;9.32;;;;;;;;;;5110594;28;20027;-86
2021/06/28 06:48:15;;;;;;;14.75;9.50;;;;;;;;;;5111351;28;20482;-88
2021/06/28 06:50:50;;;;;;;26.05;10.85;;;;;;;;;;5110232;28;20040;-89
2021/06/28 06:53:19;;;;;;;15.73;9.63;;;;;;;;;;5107067;28;20368;-85
2021/06/28 06:55:45;;;;;;;13.15;9.20;;;;;;;;;;5091305;28;20024;-87
2021/06/28 06:58:12;;;;;;;13.55;10.05;;;;;;;;;;5090732;28;20024;-83
2021/06/28 07:00:39;;;;;;;12.13;9.30;;;;;;;;;;5090241;28;20036;-85
2021/06/28 07:03:24;;;;;;;11.32;7.88;;;;;;;;;;5101641;28;20400;-85
2021/06/28 07:05:53;;;;;;;19.08;16.58;;;;;;;;;;5110292;28;20034;-84
2021/06/28 07:08:19;;;;;;;10.55;8.23;;;;;;;;;;5106055;28;20040;-83
2021/06/28 07:10:46;;;;;;;10.15;7.15;;;;;;;;;;5091136;28;20028;-83
2021/06/28 07:13:14;;;;;;;13.88;8.43;;;;;;;;;;5090764;28;20479;-86
2021/06/28 07:16:00;;;;;;;18.23;7.72;;;;;;;;;;5090971;28;20050;-87
2021/06/28 07:18:26;;;;;;;12.15;8.52;;;;;;;;;;5089275;28;20534;-84
2021/06/28 07:20:56;;;;;;;11.10;8.70;;;;;;;;;;5091114;28;20092;-88
2021/06/28 07:23:43;;;;;;;14.82;6.35;;;;;;;;;;5089540;28;20470;-88
2021/06/28 07:26:27;;;;;;;9.38;6.88;;;;;;;;;;5090717;28;20424;-88
2021/06/28 07:31:55;;;;;;;10.82;6.20;;;;;;;;;;5108115;28;19946;-87
2021/06/28 07:34:33;;;;;;;8.40;5.85;;;;;;;;;;5108882;28;20039;-88
2021/06/28 07:37:08;;;;;;;7.22;5.53;;;;;;;;;;5093555;28;20514;-88
2021/06/28 07:39:34;;;;;;;7.97;5.65;;;;;;;;;;5101329;28;20035;-87
2021/06/28 07:42:04;;;;;;;5.90;4.68;;;;;;;;;;5113568;28;20092;-86
2021/06/28 07:44:30;;;;;;;5.63;5.00;;;;;;;;;;5111803;28;20023;-87
2021/06/28 07:46:56;;;;;;;48.85;9.55;;;;;;;;;;5111770;28;20085;-87
2021/06/28 07:49:35;;;;;;;7.72;5.00;;;;;;;;;;5111620;28;20481;-88
2021/06/28 07:52:10;;;;;;;8.88;4.90;;;;;;;;;;5101887;28;20445;-87
2021/06/28 07:54:40;;;;;;;8.10;4.70;;;;;;;;;;5102563;28;20086;-89
2021/06/28 07:57:06;;;;;;;4.80;4.25;;;;;;;;;;5106459;28;20028;-87
2021/06/28 07:59:52;;;;;;;5.70;4.90;;;;;;;;;;5101662;28;20024;-87
2021/06/28 08:02:21;;;;;;;5.65;5.05;;;;;;;;;;5104961;28;20044;-85
2021/06/28 08:04:48;;;;;;;8.75;5.60;;;;;;;;;;5102461;27;20036;-83
2021/06/28 08:07:14;;;;;;;6.25;4.28;;;;;;;;;;5093984;28;20098;-84
2021/06/28 08:09:40;;;;;;;5.72;4.25;;;;;;;;;;5098077;28;20047;-86
2021/06/28 08:12:06;;;;;;;21.63;6.78;;;;;;;;;;5096426;28;20043;-83
2021/06/28 08:14:33;;;;;;;6.53;4.63;;;;;;;;;;5107792;28;20023;-84
2021/06/28 08:17:02;;;;;;;8.10;5.70;;;;;;;;;;5113043;28;20448;-87
2021/06/28 08:19:28;;;;;;;5.30;4.60;;;;;;;;;;5112810;28;20024;-87
2021/06/28 08:21:54;;;;;;;5.47;4.43;;;;;;;;;;5112932;28;20114;-87
2021/06/28 08:24:21;;;;;;;5.57;5.05;;;;;;;;;;5113238;28;20073;-88
2021/06/28 08:26:51;;;;;;;5.93;5.15;;;;;;;;;;5112721;28;20027;-87
2021/06/28 08:29:17;;;;;;;5.40;4.90;;;;;;;;;;5113076;28;20036;-83
2021/06/28 08:31:45;;;;;;;6.85;5.00;;;;;;;;;;5105646;28;20089;-86
2021/06/28 08:34:11;;;;;;;5.53;5.03;;;;;;;;;;5110501;28;20028;-87
2021/06/28 08:36:39;;;;;;;7.72;5.30;;;;;;;;;;5099687;28;20024;-82
2021/06/28 08:39:05;;;;;;;4.30;3.90;;;;;;;;;;5096722;28;20088;-81
2021/06/28 08:41:32;;;;;;;5.75;4.40;;;;;;;;;;5112377;28;20038;-84
2021/06/28 08:43:58;;;;;;;5.55;5.03;;;;;;;;;;5113901;28;20031;-83
2021/06/28 08:46:24;;;;;;;7.65;5.65;;;;;;;;;;5112702;28;20066;-83
2021/06/28 08:48:50;;;;;;;14.82;6.13;;;;;;;;;;5101977;28;20032;-86
2021/06/28 08:51:17;;;;;;;6.07;5.20;;;;;;;;;;5104290;28;20107;-82
2021/06/28 08:53:43;;;;;;;5.65;4.80;;;;;;;;;;5107976;28;20501;-87
2021/06/28 08:56:10;;;;;;;5.22;4.72;;;;;;;;;;5098151;28;20097;-85
2021/06/28 08:58:39;;;;;;;5.55;4.35;;;;;;;;;;5092075;28;20440;-86
2021/06/28 09:01:09;;;;;;;7.47;6.65;;;;;;;;;;5103599;28;20035;-84
2021/06/28 09:03:35;;;;;;;5.68;5.18;;;;;;;;;;5111960;28;20035;-87
2021/06/28 09:06:14;;;;;;;6.05;4.90;;;;;;;;;;5113671;28;20042;-86
2021/06/28 09:08:53;;;;;;;7.20;5.55;;;;;;;;;;5098008;28;20020;-86
2021/06/28 09:11:19;;;;;;;7.07;6.38;;;;;;;;;;5094336;28;20024;-84
2021/06/28 09:13:47;;;;;;;10.70;9.63;;;;;;;;;;5112809;28;20038;-80
2021/06/28 09:16:14;;;;;;;5.75;4.88;;;;;;;;;;5100449;28;20076;-89
2021/06/28 09:19:12;;;;;;;8.38;4.90;;;;;;;;;;5091791;28;20057;-83
2021/06/28 09:21:40;;;;;;;5.82;4.50;;;;;;;;;;5095348;28;20074;-86
2021/06/28 09:24:27;;;;;;;5.60;5.10;;;;;;;;;;5112852;28;20023;-86
2021/06/28 09:26:58;;;;;;;6.47;5.85;;;;;;;;;;5112560;28;20035;-86
2021/06/28 09:29:34;;;;;;;6.28;4.53;;;;;;;;;;5113374;28;20023;-86
2021/06/28 09:32:07;;;;;;;5.70;5.00;;;;;;;;;;5105641;27;20098;-87
2021/06/28 09:34:40;;;;;;;5.15;4.65;;;;;;;;;;5093039;28;20035;-88
2021/06/28 09:37:11;;;;;;;5.55;5.05;;;;;;;;;;5090899;28;20027;-86
2021/06/28 09:39:41;;;;;;;8.15;5.00;;;;;;;;;;5100183;28;20429;-85
2021/06/28 09:42:07;;;;;;;8.30;5.32;;;;;;;;;;5112321;28;20043;-84
2021/06/28 09:44:35;;;;;;;14.25;12.90;;;;;;;;;;5103538;28;20600;-85
2021/06/28 09:47:08;;;;;;;25.80;23.38;;;;;;;;;;5098340;28;20032;-84
2021/06/28 09:49:35;;;;;;;6.90;6.28;;;;;;;;;;5099605;28;20020;-88
2021/06/28 09:52:01;;;;;;;6.55;4.97;;;;;;;;;;5099269;28;20028;-86
2021/06/28 09:54:27;;;;;;;15.88;14.57;;;;;;;;;;5092050;28;20060;-86
2021/06/28 09:56:54;;;;;;;6.50;5.88;;;;;;;;;;5090452;28;20479;-86
2021/06/28 09:59:35;;;;;;;6.03;5.43;;;;;;;;;;5102198;28;20032;-86
2021/06/28 10:02:42;;;;;;;5.95;5.35;;;;;;;;;;5090541;28;20376;-87
2021/06/28 10:05:20;;;;;;;7.13;4.85;;;;;;;;;;5104514;28;20499;-87
2021/06/28 10:07:46;;;;;;;10.30;5.60;;;;;;;;;;5107942;28;20032;-86
2021/06/28 10:10:41;;;;;;;6.10;5.15;;;;;;;;;;5109848;28;20027;-87
2021/06/28 10:13:08;;;;;;;6.78;4.55;;;;;;;;;;5096843;28;20059;-84
2021/06/28 10:15:39;;;;;;;5.95;4.80;;;;;;;;;;5112210;28;20020;-86
2021/06/28 10:18:06;;;;;;;8.63;4.57;;;;;;;;;;5095705;28;20479;-86
2021/06/28 10:20:33;;;;;;;12.07;5.93;;;;;;;;;;5091832;28;20028;-87
2021/06/28 10:23:00;;;;;;;7.18;5.72;;;;;;;;;;5099660;28;20023;-85
2021/06/28 10:25:26;;;;;;;8.32;5.97;;;;;;;;;;5110992;28;20479;-85
2021/06/28 10:27:53;;;;;;;7.53;6.72;;;;;;;;;;5110769;28;20027;-87
2021/06/28 10:30:20;;;;;;;10.27;6.40;;;;;;;;;;5111943;28;20414;-87
2021/06/28 10:32:48;;;;;;;6.13;5.53;;;;;;;;;;5107637;28;20043;-86
2021/06/28 10:35:28;;;;;;;5.88;5.32;;;;;;;;;;5098434;28;20050;-85
2021/06/28 10:37:54;;;;;;;6.28;5.30;;;;;;;;;;5100179;28;20028;-85
2021/06/28 10:40:23;;;;;;;7.13;5.82;;;;;;;;;;5102514;28;20047;-85
2021/06/28 10:42:53;;;;;;;6.10;5.60;;;;;;;;;;5111477;28;20042;-87
2021/06/28 10:45:38;;;;;;;6.05;5.45;;;;;;;;;;5109922;28;20364;-88
2021/06/28 10:48:09;;;;;;;13.23;6.13;;;;;;;;;;5099320;28;20031;-86
2021/06/28 10:51:02;;;;;;;8.20;5.45;;;;;;;;;;5103850;28;20028;-86
2021/06/28 10:53:28;;;;;;;6.82;5.28;;;;;;;;;;5103470;28;20040;-86
2021/06/28 10:55:54;;;;;;;7.05;6.35;;;;;;;;;;5111225;28;20038;-85
2021/06/28 10:58:27;;;;;;;7.55;6.75;;;;;;;;;;5111235;28;20401;-85
2021/06/28 11:01:04;;;;;;;11.60;5.70;;;;;;;;;;5109576;28;20116;-86
2021/06/28 11:03:34;;;;;;;5.70;5.20;;;;;;;;;;5109436;28;20039;-86
2021/06/28 11:06:19;;;;;;;7.53;5.45;;;;;;;;;;5109755;28;20015;-85
2021/06/28 11:09:05;;;;;;;9.38;5.65;;;;;;;;;;5110813;28;20015;-85
2021/06/28 11:11:43;;;;;;;8.60;5.55;;;;;;;;;;5114931;28;20107;-84
2021/06/28 11:14:10;;;;;;;6.60;4.93;;;;;;;;;;5114089;28;20478;-85
2021/06/28 11:16:37;;;;;;;9.10;5.32;;;;;;;;;;5115706;28;20028;-87
2021/06/28 11:19:22;;;;;;;6.05;5.40;;;;;;;;;;5114052;28;20023;-86
2021/06/28 11:21:48;;;;;;;7.38;5.53;;;;;;;;;;5114951;28;20577;-86
2021/06/28 11:24:35;;;;;;;7.32;5.43;;;;;;;;;;5114231;28;20031;-85
2021/06/28 11:27:17;;;;;;;6.20;5.60;;;;;;;;;;5114882;28;20024;-83
2021/06/28 11:29:48;;;;;;;12.85;11.73;;;;;;;;;;5115034;28;20047;-84
2021/06/28 11:32:32;;;;;;;6.65;5.53;;;;;;;;;;5101829;28;20024;-84
2021/06/28 11:34:59;;;;;;;6.68;5.68;;;;;;;;;;5104319;28;20028;-84
2021/06/28 11:37:28;;;;;;;8.23;5.40;;;;;;;;;;5106736;28;20024;-84
2021/06/28 11:39:59;;;;;;;10.88;6.95;;;;;;;;;;5111018;28;20051;-86
2021/06/28 11:42:30;;;;;;;6.72;5.10;;;;;;;;;;5103840;28;20026;-85
2021/06/28 11:45:14;;;;;;;7.30;5.45;;;;;;;;;;5093877;28;20082;-85
2021/06/28 11:47:50;;;;;;;10.40;6.63;;;;;;;;;;5102406;28;20024;-83
2021/06/28 11:50:35;;;;;;;9.32;5.90;;;;;;;;;;5104761;28;20043;-84
2021/06/28 11:53:03;;;;;;;5.93;5.43;;;;;;;;;;5102756;28;20694;-82
2021/06/28 11:55:30;;;;;;;5.60;5.05;;;;;;;;;;5106516;28;20028;-77
2021/06/28 11:57:59;;;;;;;7.07;5.93;;;;;;;;;;5101119;28;20441;-82
2021/06/28 12:00:25;;;;;;;7.63;6.00;;;;;;;;;;5094044;28;20028;-83
2021/06/28 12:03:10;;;;;;;9.35;5.25;;;;;;;;;;5104515;28;20020;-84
2021/06/28 12:05:37;;;;;;;7.53;4.35;;;;;;;;;;5096628;28;20032;-85
2021/06/28 12:08:03;;;;;;;6.85;5.13;;;;;;;;;;5115860;28;20057;-85
2021/06/28 12:10:38;;;;;;;8.63;5.35;;;;;;;;;;5115485;28;20027;-84
2021/06/28 12:13:04;;;;;;;29.48;25.67;;;;;;;;;;5115526;28;20482;-84
2021/06/28 12:15:31;;;;;;;43.53;10.55;;;;;;;;;;5116271;28;20034;-84
2021/06/28 12:17:58;;;;;;;5.28;4.78;;;;;;;;;;5114109;28;20114;-84
2021/06/28 12:20:24;;;;;;;5.97;4.75;;;;;;;;;;5115315;28;20462;-85
2021/06/28 12:22:51;;;;;;;6.95;5.88;;;;;;;;;;5111567;28;20058;-83
2021/06/28 12:25:21;;;;;;;10.40;9.32;;;;;;;;;;5104287;28;20020;-85
2021/06/28 12:27:48;;;;;;;8.48;5.93;;;;;;;;;;5094814;28;20020;-84
2021/06/28 12:30:15;;;;;;;8.00;4.97;;;;;;;;;;5094991;28;20028;-82
2021/06/28 12:32:44;;;;;;;20.73;18.90;;;;;;;;;;5094885;28;20088;-82
2021/06/28 12:35:12;;;;;;;7.32;6.07;;;;;;;;;;5094831;28;20497;-83
2021/06/28 12:37:39;;;;;;;6.50;5.68;;;;;;;;;;5093494;28;20031;-82
2021/06/28 12:40:28;;;;;;;18.48;16.63;;;;;;;;;;5103656;28;20462;-85
2021/06/28 12:42:57;;;;;;;8.10;5.85;;;;;;;;;;5108235;28;20081;-85
2021/06/28 12:45:24;;;;;;;7.72;5.43;;;;;;;;;;5110834;28;20028;-82
2021/06/28 12:47:54;;;;;;;6.82;6.07;;;;;;;;;;5094503;28;20608;-84
2021/06/28 12:50:21;;;;;;;6.90;5.50;;;;;;;;;;5108383;28;20035;-86
2021/06/28 12:52:48;;;;;;;8.02;7.07;;;;;;;;;;5096773;28;20043;-85
2021/06/28 12:55:14;;;;;;;6.32;4.60;;;;;;;;;;5111336;28;20028;-86
2021/06/28 12:57:42;;;;;;;6.32;4.85;;;;;;;;;;5094857;28;20059;-86
2021/06/28 13:00:27;;;;;;;5.97;4.20;;;;;;;;;;5114789;28;20505;-86
2021/06/28 13:02:53;;;;;;;6.45;4.80;;;;;;;;;;5111933;28;20077;-86
2021/06/28 13:05:28;;;;;;;7.22;4.38;;;;;;;;;;5109311;28;20023;-84
2021/06/28 13:08:07;;;;;;;6.95;4.80;;;;;;;;;;5094085;28;20051;-86
2021/06/28 13:10:33;;;;;;;17.88;16.08;;;;;;;;;;5101852;28;20032;-84
2021/06/28 13:13:16;;;;;;;9.25;8.30;;;;;;;;;;5103851;28;20023;-84
2021/06/28 13:15:51;;;;;;;5.35;4.85;;;;;;;;;;5114492;28;20030;-82
2021/06/28 13:18:19;;;;;;;5.70;4.82;;;;;;;;;;5095535;28;20054;-76
2021/06/28 13:20:45;;;;;;;6.95;4.80;;;;;;;;;;5093583;28;20028;-84
2021/06/28 13:23:11;;;;;;;6.22;4.60;;;;;;;;;;5093839;28;20490;-84
2021/06/28 13:25:37;;;;;;;5.90;4.53;;;;;;;;;;5096443;28;20020;-83
2021/06/28 13:28:11;;;;;;;8.48;4.70;;;;;;;;;;5106637;28;20116;-84
2021/06/28 13:30:37;;;;;;;7.50;4.97;;;;;;;;;;5111749;28;20423;-82
2021/06/28 13:33:07;;;;;;;6.82;5.03;;;;;;;;;;5113748;28;20038;-83
2021/06/28 13:35:33;;;;;;;6.57;4.93;;;;;;;;;;5114032;28;20091;-83
2021/06/28 13:38:06;;;;;;;5.90;5.03;;;;;;;;;;5114791;28;20394;-84
2021/06/28 13:40:32;;;;;;;;;;;;;;;;;;5114887;27;20048;-83
2021/06/28 13:42:59;;;;;;;6.47;5.88;;;;;;;;;;5114898;28;20292;-85
2021/06/28 13:45:28;;;;;;;5.13;4.63;;;;;;;;;;5113791;28;20386;-85
2021/06/28 13:47:55;;;;;;;5.38;4.85;;;;;;;;;;5115021;27;20036;-86
2021/06/28 13:50:22;;;;;;;5.07;4.57;;;;;;;;;;5114965;28;20050;-85
2021/06/28 13:52:49;;;;;;;6.38;4.80;;;;;;;;;;5114790;28;20102;-81
2021/06/28 13:55:16;;;;;;;5.32;4.35;;;;;;;;;;5114774;28;20020;-82
2021/06/28 13:57:46;;;;;;;6.93;4.88;;;;;;;;;;5114704;28;20078;-83
2021/06/28 14:00:16;;;;;;;5.93;5.28;;;;;;;;;;5114463;28;20084;-84
2021/06/28 14:02:42;;;;;;;7.57;5.50;;;;;;;;;;5114752;28;20482;-84
2021/06/28 14:05:09;;;;;;;27.85;25.20;;;;;;;;;;5114498;28;20028;-85
2021/06/28 14:07:35;;;;;;;6.90;5.10;;;;;;;;;;5114659;28;20023;-82
2021/06/28 14:10:01;;;;;;;5.88;5.22;;;;;;;;;;5114477;28;20046;-85
2021/06/28 14:12:27;;;;;;;7.05;5.07;;;;;;;;;;5111207;28;20020;-83
2021/06/28 14:14:54;;;;;;;6.05;5.43;;;;;;;;;;5113910;28;20027;-84
2021/06/28 14:17:20;;;;;;;5.47;4.88;;;;;;;;;;5113689;28;20475;-82
2021/06/28 14:19:46;;;;;;;8.30;5.45;;;;;;;;;;5112563;28;20019;-85
2021/06/28 14:22:12;;;;;;;9.93;6.18;;;;;;;;;;5113621;28;20042;-84
2021/06/28 14:24:38;;;;;;;6.38;4.82;;;;;;;;;;5113175;28;20026;-85
2021/06/28 14:27:05;;;;;;;8.85;5.68;;;;;;;;;;5113258;28;20386;-85
2021/06/28 14:29:33;;;;;;;6.28;5.10;;;;;;;;;;5112768;28;20077;-84
2021/06/28 14:31:59;;;;;;;7.43;5.18;;;;;;;;;;5110766;28;20068;-85
2021/06/28 14:34:26;;;;;;;6.07;4.95;;;;;;;;;;5111469;28;20596;-85
2021/06/28 14:36:52;;;;;;;7.22;5.15;;;;;;;;;;5113489;28;20115;-82
2021/06/28 14:39:21;;;;;;;5.53;5.00;;;;;;;;;;5113022;28;20052;-81
2021/06/28 14:41:50;;;;;;;6.18;4.70;;;;;;;;;;5112009;28;20081;-85
2021/06/28 14:44:16;;;;;;;5.13;4.55;;;;;;;;;;5112080;28;20016;-83
2021/06/28 14:46:42;;;;;;;22.55;18.90;;;;;;;;;;5111882;28;20478;-82
2021/06/28 14:49:10;;;;;;;6.55;5.20;;;;;;;;;;5113034;28;20023;-84
2021/06/28 14:51:36;;;;;;;10.23;8.10;;;;;;;;;;5113265;28;20051;-84
2021/06/28 14:54:05;;;;;;;5.55;5.05;;;;;;;;;;5113441;28;20081;-85
2021/06/28 14:56:31;;;;;;;5.18;4.57;;;;;;;;;;5112785;28;20673;-83
2021/06/28 14:58:57;;;;;;;5.68;4.38;;;;;;;;;;5112897;28;20102;-86
2021/06/28 15:01:23;;;;;;;5.43;4.88;;;;;;;;;;5112699;28;20047;-86